createdAt,value
2019-05-02T00:00:11.190Z,90.20
2019-05-02T00:02:42.051Z,95.30
2019-05-02T00:05:12.128Z,86.30
2019-05-02T00:07:41.768Z,92.30
2019-05-02T00:10:11.872Z,90.47
2019-05-02T00:12:40.749Z,92.82
2019-05-02T00:15:10.688Z,88.80
2019-05-02T00:17:40.631Z,90.47
2019-05-02T00:20:09.873Z,91.45
2019-05-02T00:22:38.976Z,99.60
2019-05-02T00:25:11.135Z,93.05
2019-05-02T00:27:39.048Z,104.55
2019-05-02T00:30:08.525Z,91.78
2019-05-02T00:32:37.668Z,93.27
2019-05-02T00:35:06.610Z,100.92
2019-05-02T00:37:35.548Z,103.38
2019-05-02T00:40:05.983Z,104.38
2019-05-02T00:42:34.863Z,100.18
2019-05-02T00:45:04.311Z,102.53
2019-05-02T00:47:47.773Z,100.62
2019-05-02T00:50:15.540Z,104.78
2019-05-02T00:52:44.422Z,100.25
2019-05-02T00:55:13.362Z,99.75
2019-05-02T00:57:42.227Z,102.50
2019-05-02T01:00:13.478Z,96.82
2019-05-02T01:02:46.869Z,103.17
2019-05-02T01:05:15.732Z,105.05
2019-05-02T01:07:44.600Z,98.78
2019-05-02T01:10:17.276Z,103.07
2019-05-02T01:12:45.978Z,109.57
2019-05-02T01:15:15.025Z,99.80
2019-05-02T01:17:43.888Z,105.20
2019-05-02T01:20:12.828Z,113.50
2019-05-02T01:22:41.728Z,109.95
2019-05-02T01:25:15.398Z,112.65
2019-05-02T01:27:43.404Z,116.08
2019-05-02T01:30:26.204Z,105.00
2019-05-02T01:33:01.421Z,111.05
2019-05-02T01:35:32.770Z,107.85
2019-05-02T01:38:18.384Z,113.95
2019-05-02T01:40:53.105Z,118.13
2019-05-02T01:43:24.176Z,115.00
2019-05-02T01:45:52.412Z,115.05
2019-05-02T01:48:21.359Z,117.40
2019-05-02T01:50:50.301Z,119.40
2019-05-02T01:53:19.196Z,120.40
2019-05-02T01:55:52.067Z,118.13
2019-05-02T01:58:21.017Z,120.72
2019-05-02T02:00:49.269Z,115.05
2019-05-02T02:03:18.140Z,124.80
2019-05-02T02:05:47.018Z,119.87
2019-05-02T02:08:15.889Z,120.90
2019-05-02T02:10:44.764Z,119.33
2019-05-02T02:13:13.637Z,120.45
2019-05-02T02:15:42.508Z,126.82
2019-05-02T02:18:12.812Z,124.47
2019-05-02T02:20:49.083Z,120.62
2019-05-02T02:23:27.555Z,120.55
2019-05-02T02:26:01.059Z,121.33
2019-05-02T02:28:31.959Z,126.67
2019-05-02T02:31:05.149Z,118.77
2019-05-02T02:33:31.095Z,131.03
2019-05-02T02:35:59.962Z,123.97
2019-05-02T02:38:33.633Z,125.92
2019-05-02T02:40:59.421Z,123.13
2019-05-02T02:43:33.950Z,131.95
2019-05-02T02:46:05.180Z,131.25
2019-05-02T02:48:40.428Z,122.72
2019-05-02T02:51:04.908Z,124.80
2019-05-02T02:53:33.793Z,125.58
2019-05-02T02:56:04.233Z,126.10
2019-05-02T02:58:43.993Z,121.28
2019-05-02T03:01:04.307Z,129.97
2019-05-02T03:03:35.274Z,131.80
2019-05-02T03:06:05.422Z,126.18
2019-05-02T03:08:44.527Z,127.70
2019-05-02T03:11:05.228Z,132.22
2019-05-02T03:13:51.403Z,132.95
2019-05-02T03:16:23.039Z,130.37
2019-05-02T03:18:51.967Z,133.65
2019-05-02T03:21:22.495Z,131.15
2019-05-02T03:24:02.277Z,130.90
2019-05-02T03:26:23.242Z,131.90
2019-05-02T03:28:58.568Z,134.12
2019-05-02T03:31:28.205Z,140.32
2019-05-02T03:33:59.343Z,128.02
2019-05-02T03:36:31.507Z,134.45
2019-05-02T03:38:54.412Z,134.18
2019-05-02T03:41:23.774Z,133.15
2019-05-02T03:44:10.023Z,135.03
2019-05-02T03:46:23.538Z,135.32
2019-05-02T03:48:52.564Z,135.50
2019-05-02T03:51:25.116Z,135.68
2019-05-02T03:54:06.225Z,130.37
2019-05-02T03:56:24.561Z,127.58
2019-05-02T03:58:55.925Z,135.45
2019-05-02T04:01:24.212Z,140.32
2019-05-02T04:03:53.086Z,139.10
2019-05-02T04:06:23.746Z,140.88
2019-05-02T04:08:58.884Z,141.40
2019-05-02T04:11:24.043Z,142.50
2019-05-02T04:13:53.274Z,144.97
2019-05-02T04:16:22.507Z,147.10
2019-05-02T04:18:55.763Z,139.68
2019-05-02T04:21:24.689Z,150.82
2019-05-02T04:23:53.110Z,150.72
2019-05-02T04:26:22.341Z,143.50
2019-05-02T04:28:52.113Z,151.42
2019-05-02T04:31:24.672Z,157.40
2019-05-02T04:33:52.775Z,151.97
2019-05-02T04:36:21.639Z,148.95
2019-05-02T04:38:52.409Z,159.57
2019-05-02T04:41:28.450Z,158.60
2019-05-02T04:43:57.292Z,148.32
2019-05-02T04:46:27.216Z,154.30
2019-05-02T04:48:53.294Z,154.03
2019-05-02T04:51:22.605Z,158.40
2019-05-02T04:53:51.460Z,163.25
2019-05-02T04:56:20.343Z,153.65
2019-05-02T04:58:49.769Z,154.50
2019-05-02T05:01:21.339Z,156.78
2019-05-02T05:04:01.016Z,162.43
2019-05-02T05:06:21.060Z,153.80
2019-05-02T05:08:51.232Z,158.12
2019-05-02T05:11:24.697Z,158.90
2019-05-02T05:13:52.415Z,161.95
2019-05-02T05:16:21.336Z,162.05
2019-05-02T05:18:53.088Z,162.07
2019-05-02T05:21:24.766Z,162.30
2019-05-02T05:24:01.195Z,157.78
2019-05-02T05:26:28.961Z,148.78
2019-05-02T05:28:58.308Z,154.95
2019-05-02T05:31:29.169Z,158.37
2019-05-02T05:33:58.107Z,151.30
2019-05-02T05:36:32.590Z,151.25
2019-05-02T05:38:58.236Z,147.02
2019-05-02T05:41:27.956Z,138.92
2019-05-02T05:43:57.478Z,149.53
2019-05-02T05:46:28.081Z,150.40
2019-05-02T05:48:58.271Z,146.50
2019-05-02T05:51:28.583Z,150.53
2019-05-02T05:54:02.821Z,151.27
2019-05-02T05:56:32.452Z,152.97
2019-05-02T05:58:59.297Z,151.72
2019-05-02T06:01:34.473Z,141.32
2019-05-02T06:03:58.811Z,143.47
2019-05-02T06:06:27.687Z,138.05
2019-05-02T06:08:56.547Z,136.60
2019-05-02T06:11:25.415Z,129.10
2019-05-02T06:13:57.499Z,134.47
2019-05-02T06:16:26.667Z,126.42
2019-05-02T06:18:55.523Z,119.30
2019-05-02T06:21:24.456Z,123.97
2019-05-02T06:23:53.335Z,120.35
2019-05-02T06:26:22.199Z,124.27
2019-05-02T06:28:51.059Z,121.10
2019-05-02T06:31:21.927Z,115.62
2019-05-02T06:33:51.011Z,123.22
2019-05-02T06:36:19.881Z,128.50
2019-05-02T06:38:52.337Z,135.78
2019-05-02T06:41:20.945Z,131.03
2019-05-02T06:43:49.900Z,133.10
2019-05-02T06:46:21.943Z,138.68
2019-05-02T06:48:52.390Z,130.60
2019-05-02T06:51:21.113Z,127.65
2019-05-02T06:53:50.143Z,134.72
2019-05-02T06:56:19.090Z,133.00
2019-05-02T06:58:48.043Z,132.30
2019-05-02T07:01:21.146Z,127.80
2019-05-02T07:03:47.649Z,129.87
2019-05-02T07:06:16.838Z,127.90
2019-05-02T07:08:45.786Z,137.28
2019-05-02T07:11:14.691Z,127.00
2019-05-02T07:13:43.828Z,132.57
2019-05-02T07:16:16.070Z,133.85
2019-05-02T07:18:52.682Z,129.35
2019-05-02T07:21:23.661Z,127.42
2019-05-02T07:23:53.636Z,127.60
2019-05-02T07:26:23.314Z,130.32
2019-05-02T07:28:52.725Z,131.00
2019-05-02T07:31:21.595Z,131.93
2019-05-02T07:33:50.735Z,126.33
2019-05-02T07:36:19.839Z,133.22
2019-05-02T07:38:48.707Z,116.90
2019-05-02T07:41:17.567Z,117.57
2019-05-02T07:43:46.439Z,118.62
2019-05-02T07:46:16.214Z,113.08
2019-05-02T07:48:48.970Z,114.90
2019-05-02T07:51:17.216Z,110.78
2019-05-02T07:53:48.568Z,106.52
2019-05-02T07:56:18.935Z,107.32
2019-05-02T07:58:48.148Z,102.95
2019-05-02T08:01:17.140Z,100.02
2019-05-02T08:03:45.996Z,95.42
2019-05-02T08:06:14.858Z,94.17
2019-05-02T08:08:43.717Z,91.45
2019-05-02T08:11:12.575Z,93.78
2019-05-02T08:13:41.431Z,89.72
2019-05-02T08:16:10.302Z,93.40
2019-05-02T08:18:39.159Z,97.35
2019-05-02T08:21:08.020Z,90.83
2019-05-02T08:23:37.115Z,92.88
2019-05-02T08:26:06.747Z,93.58
2019-05-02T08:28:47.065Z,95.67
2019-05-02T08:31:18.866Z,94.55
2019-05-02T08:33:44.847Z,85.55
2019-05-02T08:36:13.703Z,84.25
2019-05-02T08:38:42.559Z,87.27
2019-05-02T08:41:11.419Z,84.67
2019-05-02T08:43:44.923Z,80.47
2019-05-02T08:46:14.413Z,80.05
2019-05-02T08:48:43.726Z,82.60
2019-05-02T08:51:12.396Z,78.30
2019-05-02T08:53:41.255Z,81.05
2019-05-02T08:56:10.115Z,78.42
2019-05-02T08:58:38.979Z,73.52
2019-05-02T09:01:09.126Z,77.50
2019-05-02T09:03:54.864Z,75.78
2019-05-02T09:06:09.811Z,72.08
2019-05-02T09:08:38.670Z,74.90
2019-05-02T09:11:07.527Z,70.22
2019-05-02T09:13:36.391Z,68.20
2019-05-02T09:16:06.041Z,71.92
2019-05-02T09:18:38.246Z,68.30
2019-05-02T09:21:05.635Z,69.77
2019-05-02T09:23:37.010Z,73.25
2019-05-02T09:26:05.119Z,69.25
2019-05-02T09:28:33.983Z,74.55
2019-05-02T09:31:06.475Z,72.53
2019-05-02T09:33:36.884Z,67.92
2019-05-02T09:36:04.318Z,72.62
2019-05-02T09:38:33.174Z,73.40
2019-05-02T09:41:15.374Z,71.22
2019-05-02T09:43:37.508Z,68.72
2019-05-02T09:46:07.225Z,63.23
2019-05-02T09:48:34.013Z,62.60
2019-05-02T09:51:04.595Z,60.98
2019-05-02T09:53:33.437Z,63.38
2019-05-02T09:56:02.343Z,64.32
2019-05-02T09:58:32.019Z,55.40
2019-05-02T10:01:02.707Z,54.40
2019-05-02T10:03:32.040Z,54.05
2019-05-02T10:06:02.901Z,52.25
2019-05-02T10:08:32.131Z,57.27
2019-05-02T10:11:02.834Z,51.92
2019-05-02T10:13:32.617Z,50.92
2019-05-02T10:16:02.119Z,50.75
2019-05-02T10:18:32.989Z,52.25
2019-05-02T10:21:03.064Z,49.42
2019-05-02T10:23:32.283Z,52.08
2019-05-02T10:26:02.858Z,49.20
2019-05-02T10:28:31.995Z,57.15
2019-05-02T10:31:09.809Z,53.80
2019-05-02T10:33:38.676Z,59.00
2019-05-02T10:36:13.142Z,55.05
2019-05-02T10:38:38.087Z,55.95
2019-05-02T10:41:06.985Z,59.03
2019-05-02T10:43:35.883Z,53.13
2019-05-02T10:46:09.388Z,50.88
2019-05-02T10:48:41.631Z,54.67
2019-05-02T10:51:18.264Z,52.83
2019-05-02T10:53:52.652Z,56.05
2019-05-02T10:56:17.979Z,53.20
2019-05-02T10:58:47.986Z,50.40
2019-05-02T11:01:17.795Z,53.08
2019-05-02T11:03:52.394Z,54.50
2019-05-02T11:06:22.283Z,53.15
2019-05-02T11:08:52.394Z,47.03
2019-05-02T11:11:22.281Z,44.95
2019-05-02T11:14:00.617Z,39.65
2019-05-02T11:16:28.699Z,46.37
2019-05-02T11:19:05.262Z,45.73
2019-05-02T11:21:34.436Z,48.80
2019-05-02T11:24:03.584Z,50.90
2019-05-02T11:26:32.683Z,47.03
2019-05-02T11:29:02.967Z,46.05
2019-05-02T11:31:32.553Z,42.23
2019-05-02T11:34:01.926Z,40.95
2019-05-02T11:36:32.785Z,41.10
2019-05-02T11:39:11.835Z,42.60
2019-05-02T11:41:33.609Z,42.65
2019-05-02T11:44:02.940Z,38.95
2019-05-02T11:46:33.041Z,44.27
2019-05-02T11:49:02.536Z,40.85
2019-05-02T11:51:32.666Z,36.98
2019-05-02T11:54:05.091Z,34.53
2019-05-02T11:56:32.982Z,33.85
2019-05-02T11:59:02.828Z,39.88
2019-05-02T12:01:37.101Z,32.33
2019-05-02T12:04:03.116Z,31.05
2019-05-02T12:06:33.298Z,34.67
2019-05-02T12:09:02.664Z,31.15
2019-05-02T12:11:32.599Z,31.15
2019-05-02T12:14:01.865Z,29.95
2019-05-02T12:16:32.309Z,27.58
2019-05-02T12:19:09.603Z,31.68
2019-05-02T12:21:32.632Z,27.52
2019-05-02T12:24:02.273Z,30.08
2019-05-02T12:26:32.391Z,25.77
2019-05-02T12:29:02.574Z,28.17
2019-05-02T12:31:32.628Z,28.77
2019-05-02T12:34:03.892Z,29.45
2019-05-02T12:36:33.345Z,28.42
2019-05-02T12:39:02.689Z,35.03
2019-05-02T12:41:33.335Z,30.43
2019-05-02T12:44:02.426Z,33.13
2019-05-02T12:46:31.858Z,31.20
2019-05-02T12:49:02.770Z,38.65
2019-05-02T12:51:31.992Z,29.60
2019-05-02T12:54:02.309Z,32.73
2019-05-02T12:56:32.381Z,30.72
2019-05-02T12:59:02.663Z,30.75
2019-05-02T13:01:33.040Z,28.62
2019-05-02T13:04:04.020Z,30.92
2019-05-02T13:06:32.992Z,33.30
2019-05-02T13:09:03.106Z,27.55
2019-05-02T13:11:52.431Z,34.50
2019-05-02T13:14:23.034Z,27.25
2019-05-02T13:16:53.628Z,28.35
2019-05-02T13:19:36.808Z,30.45
2019-05-02T13:21:59.683Z,28.65
2019-05-02T13:24:32.444Z,26.80
2019-05-02T13:27:04.027Z,27.00
2019-05-02T13:29:32.242Z,24.80
2019-05-02T13:32:08.636Z,24.87
2019-05-02T13:34:57.068Z,27.37
2019-05-02T13:37:25.371Z,24.18
2019-05-02T13:40:02.550Z,27.58
2019-05-02T13:42:33.687Z,23.92
2019-05-02T13:45:04.407Z,22.93
2019-05-02T13:47:33.347Z,27.05
2019-05-02T13:50:03.901Z,24.87
2019-05-02T13:52:33.348Z,26.57
2019-05-02T13:55:02.600Z,26.95
2019-05-02T13:57:34.955Z,28.60
2019-05-02T14:00:02.432Z,28.35
2019-05-02T14:02:42.654Z,29.37
2019-05-02T14:05:12.867Z,27.60
2019-05-02T14:07:43.580Z,27.58
2019-05-02T14:10:39.212Z,31.42
2019-05-02T14:13:03.967Z,30.25
2019-05-02T14:15:34.538Z,31.73
2019-05-02T14:18:03.459Z,33.95
2019-05-02T14:20:33.070Z,33.58
2019-05-02T14:23:02.378Z,34.73
2019-05-02T14:25:32.287Z,35.33
2019-05-02T14:28:02.907Z,30.15
2019-05-02T14:30:39.953Z,29.75
2019-05-02T14:33:04.072Z,29.32
2019-05-02T14:35:36.272Z,29.72
2019-05-02T14:38:08.928Z,27.98
2019-05-02T14:40:42.356Z,33.53
2019-05-02T14:43:12.905Z,34.35
2019-05-02T14:45:43.729Z,33.42
2019-05-02T14:48:21.095Z,37.63
2019-05-02T14:50:45.796Z,32.67
2019-05-02T14:53:16.779Z,35.70
2019-05-02T14:55:47.403Z,32.95
2019-05-02T14:58:16.263Z,35.90
2019-05-02T15:00:48.105Z,33.30
2019-05-02T15:03:19.122Z,35.83
2019-05-02T15:05:47.559Z,35.90
2019-05-02T15:08:16.423Z,34.20
2019-05-02T15:10:52.403Z,33.05
2019-05-02T15:13:15.845Z,38.30
2019-05-02T15:15:44.711Z,33.48
2019-05-02T15:18:17.516Z,32.30
2019-05-02T15:20:44.103Z,29.80
2019-05-02T15:23:19.531Z,29.50
2019-05-02T15:25:47.216Z,30.10
2019-05-02T15:28:22.912Z,27.67
2019-05-02T15:31:06.210Z,36.13
2019-05-02T15:33:48.508Z,32.45
2019-05-02T15:36:17.358Z,35.13
2019-05-02T15:38:47.524Z,34.85
2019-05-02T15:41:16.474Z,33.02
2019-05-02T15:43:49.180Z,34.08
2019-05-02T15:46:22.649Z,32.55
2019-05-02T15:48:47.339Z,32.45
2019-05-02T15:51:16.211Z,30.92
2019-05-02T15:53:49.710Z,29.20
2019-05-02T15:56:20.423Z,29.20
2019-05-02T15:58:47.833Z,30.90
2019-05-02T16:01:18.334Z,28.60
2019-05-02T16:03:52.304Z,27.80
2019-05-02T16:06:28.316Z,25.70
2019-05-02T16:08:52.151Z,32.98
2019-05-02T16:11:22.931Z,25.08
2019-05-02T16:13:55.889Z,27.58
2019-05-02T16:16:23.245Z,25.40
2019-05-02T16:18:53.167Z,24.40
2019-05-02T16:21:35.819Z,22.95
2019-05-02T16:24:22.945Z,23.75
2019-05-02T16:26:52.964Z,22.48
2019-05-02T16:29:26.861Z,22.80
2019-05-02T16:31:59.561Z,23.40
2019-05-02T16:34:27.354Z,20.60
2019-05-02T16:37:15.003Z,23.00
2019-05-02T16:39:49.442Z,24.72
2019-05-02T16:42:13.915Z,24.70
2019-05-02T16:44:43.068Z,19.90
2019-05-02T16:47:14.021Z,19.55
2019-05-02T16:49:48.022Z,25.45
2019-05-02T16:52:16.206Z,64.45
2019-05-02T16:54:45.270Z,72.95
2019-05-02T16:57:17.399Z,93.10
2019-05-02T16:59:44.932Z,87.60
2019-05-02T17:02:14.111Z,133.12
2019-05-02T17:04:43.319Z,19.02
2019-05-02T17:07:16.563Z,16.27
2019-05-02T17:10:03.037Z,26.42
2019-05-02T17:12:32.268Z,21.12
2019-05-02T17:15:19.023Z,13.93
2019-05-02T17:17:47.878Z,12.20
2019-05-02T17:20:17.093Z,15.55
2019-05-02T17:22:50.207Z,16.52
2019-05-02T17:25:16.751Z,15.15
2019-05-02T17:27:46.570Z,15.72
2019-05-02T17:30:16.468Z,15.60
2019-05-02T17:32:45.387Z,12.75
2019-05-02T17:35:14.719Z,16.40
2019-05-02T17:37:48.722Z,17.57
2019-05-02T17:40:16.881Z,16.62
2019-05-02T17:42:45.027Z,18.20
2019-05-02T17:45:14.159Z,20.02
2019-05-02T17:47:43.111Z,20.57
2019-05-02T17:50:22.047Z,22.93
2019-05-02T17:52:56.191Z,22.93
2019-05-02T17:55:23.631Z,19.52
2019-05-02T17:57:52.515Z,23.83
2019-05-02T18:00:23.093Z,22.35
2019-05-02T18:02:53.372Z,22.00
2019-05-02T18:05:26.527Z,22.60
2019-05-02T18:07:53.270Z,25.00
2019-05-02T18:10:24.882Z,24.47
2019-05-02T18:12:58.139Z,22.27
2019-05-02T18:15:25.384Z,23.95
2019-05-02T18:17:54.329Z,21.82
2019-05-02T18:20:25.406Z,25.45
2019-05-02T18:22:54.764Z,25.57
2019-05-02T18:25:25.206Z,25.45
2019-05-02T18:27:54.294Z,27.42
2019-05-02T18:30:26.919Z,24.65
2019-05-02T18:32:57.715Z,24.77
2019-05-02T18:35:24.309Z,22.67
2019-05-02T18:37:53.253Z,25.40
2019-05-02T18:40:27.778Z,26.70
2019-05-02T18:42:56.619Z,24.07
2019-05-02T18:45:28.562Z,26.15
2019-05-02T18:48:02.352Z,24.07
2019-05-02T18:50:28.426Z,27.32
2019-05-02T18:52:58.223Z,26.52
2019-05-02T18:55:27.147Z,32.45
2019-05-02T18:57:56.989Z,26.45
2019-05-02T19:00:27.967Z,28.25
2019-05-02T19:02:57.658Z,28.25
2019-05-02T19:05:26.682Z,27.77
2019-05-02T19:07:56.547Z,28.10
2019-05-02T19:10:25.557Z,27.17
2019-05-02T19:12:56.060Z,30.35
2019-05-02T19:15:24.996Z,29.48
2019-05-02T19:17:53.863Z,27.73
2019-05-02T19:20:25.379Z,23.83
2019-05-02T19:22:56.789Z,23.00
2019-05-02T19:25:25.159Z,23.32
2019-05-02T19:28:02.852Z,23.40
2019-05-02T19:30:33.773Z,22.07
2019-05-02T19:33:07.506Z,23.80
2019-05-02T19:35:37.688Z,21.40
2019-05-02T19:38:04.243Z,21.25
2019-05-02T19:40:33.111Z,20.92
2019-05-02T19:43:06.110Z,22.25
2019-05-02T19:45:32.813Z,21.42
2019-05-02T19:48:02.645Z,21.12
2019-05-02T19:50:40.315Z,20.10
2019-05-02T19:53:04.628Z,23.77
2019-05-02T19:55:34.208Z,20.43
2019-05-02T19:58:06.448Z,18.05
2019-05-02T20:00:36.587Z,18.60
2019-05-02T20:03:06.624Z,20.17
2019-05-02T20:05:35.547Z,16.67
2019-05-02T20:08:04.495Z,17.32
2019-05-02T20:10:33.655Z,16.75
2019-05-02T20:13:03.071Z,17.42
2019-05-02T20:15:33.948Z,17.25
2019-05-02T20:18:04.640Z,15.80
2019-05-02T20:20:40.472Z,17.98
2019-05-02T20:23:17.865Z,16.93
2019-05-02T20:25:42.610Z,13.75
2019-05-02T20:28:11.922Z,13.38
2019-05-02T20:30:42.145Z,11.45
2019-05-02T20:33:12.883Z,13.53
2019-05-02T20:35:42.163Z,13.60
2019-05-02T20:38:13.264Z,10.28
2019-05-02T20:40:42.662Z,11.28
2019-05-02T20:43:12.183Z,10.58
2019-05-02T20:45:41.127Z,11.25
2019-05-02T20:48:11.772Z,12.15
2019-05-02T20:50:42.303Z,9.85
2019-05-02T20:53:12.826Z,11.00
2019-05-02T20:55:41.777Z,9.80
2019-05-02T20:58:12.574Z,11.95
2019-05-02T21:00:42.680Z,12.28
2019-05-02T21:03:12.013Z,12.70
2019-05-02T21:05:57.647Z,12.82
2019-05-02T21:08:33.724Z,13.32
2019-05-02T21:11:04.291Z,12.18
2019-05-02T21:13:33.156Z,12.63
2019-05-02T21:16:03.262Z,11.60
2019-05-02T21:18:32.832Z,11.65
2019-05-02T21:21:05.073Z,11.60
2019-05-02T21:23:43.832Z,11.40
2019-05-02T21:26:05.553Z,12.40
2019-05-02T21:28:34.399Z,12.80
2019-05-02T21:31:03.327Z,13.08
2019-05-02T21:33:33.336Z,11.60
2019-05-02T21:36:02.250Z,11.95
2019-05-02T21:38:31.964Z,12.05
2019-05-02T21:41:01.207Z,13.85
2019-05-02T21:43:31.671Z,11.68
2019-05-02T21:46:02.375Z,11.18
2019-05-02T21:48:32.643Z,12.98
2019-05-02T21:51:05.995Z,14.30
2019-05-02T21:53:55.131Z,13.10
2019-05-02T21:56:21.784Z,13.08
2019-05-02T21:59:07.675Z,13.78
2019-05-02T22:01:42.069Z,13.65
2019-05-02T22:04:12.905Z,11.95
2019-05-02T22:06:42.775Z,12.80
2019-05-02T22:09:13.040Z,11.20
2019-05-02T22:11:43.023Z,12.78
2019-05-02T22:14:13.610Z,12.73
2019-05-02T22:16:42.711Z,11.68
2019-05-02T22:19:12.519Z,13.15
2019-05-02T22:21:43.054Z,12.23
2019-05-02T22:24:14.288Z,12.13
2019-05-02T22:26:43.559Z,11.38
2019-05-02T22:29:12.630Z,13.15
2019-05-02T22:31:43.026Z,12.68
2019-05-02T22:34:12.889Z,17.20
2019-05-02T22:36:42.754Z,13.80
2019-05-02T22:39:31.733Z,15.58
2019-05-02T22:42:01.999Z,14.60
2019-05-02T22:44:32.507Z,14.13
2019-05-02T22:47:01.498Z,17.65
2019-05-02T22:49:31.831Z,18.42
2019-05-02T22:52:00.965Z,16.70
2019-05-02T22:54:33.306Z,14.35
2019-05-02T22:57:02.559Z,14.83
2019-05-02T22:59:31.799Z,16.50
2019-05-02T23:02:02.126Z,15.35
2019-05-02T23:04:32.561Z,15.68
2019-05-02T23:07:02.329Z,18.48
2019-05-02T23:09:31.595Z,18.65
2019-05-02T23:12:02.615Z,15.58
2019-05-02T23:14:32.499Z,19.15
2019-05-02T23:17:02.084Z,17.73
2019-05-02T23:19:31.679Z,20.35
2019-05-02T23:22:02.140Z,22.02
2019-05-02T23:24:49.079Z,20.50
2019-05-02T23:27:25.315Z,20.70
2019-05-02T23:29:54.175Z,21.33
2019-05-02T23:32:23.897Z,24.23
2019-05-02T23:34:52.874Z,25.25
2019-05-02T23:37:23.081Z,24.10
2019-05-02T23:39:52.270Z,24.00
2019-05-02T23:42:21.875Z,25.50
2019-05-02T23:44:51.939Z,30.65
2019-05-02T23:47:22.477Z,27.87
2019-05-02T23:49:52.056Z,31.82
2019-05-02T23:52:22.496Z,30.08
2019-05-02T23:54:52.460Z,33.00
2019-05-02T23:57:22.944Z,30.95
2019-05-02T23:59:52.027Z,31.00
